Time;durP1;ratioP1;P1;durP2;ratioP2;P2;SDS_P1;SDS_P2;PMS_P1;PMS_P2;Temp;Humidity;BMP_temperature;BMP_pressure;BME280_temperature;BME280_humidity;BME280_pressure;Samples;Min_cycle;Max_cycle;Signal;HPM_P1;HPM_P2
2022/03/23 00:02:24;;;;;;;17.12;7.90;;;;;;;7.76;36.24;101408.16;4457402;32;32977;-78
2022/03/23 00:05:28;;;;;;;14.30;8.13;;;;;;;7.91;36.08;101421.16;4457822;32;33580;-78
2022/03/23 00:08:10;;;;;;;13.52;7.70;;;;;;;7.82;36.25;101416.59;4472359;32;33969;-79
2022/03/23 00:10:39;;;;;;;12.43;7.30;;;;;;;7.79;36.41;101407.88;4476578;32;34908;-78
2022/03/23 00:13:13;;;;;;;14.63;8.02;;;;;;;7.71;36.55;101405.00;4482267;32;33555;-83
2022/03/23 00:15:41;;;;;;;15.73;8.00;;;;;;;7.82;36.13;101404.78;4479075;32;34229;-77
2022/03/23 00:18:09;;;;;;;15.98;8.18;;;;;;;7.71;36.34;101405.88;4458770;32;34055;-78
2022/03/23 00:20:36;;;;;;;17.40;7.72;;;;;;;7.62;36.56;101403.16;4471884;32;33107;-78
2022/03/23 00:23:05;;;;;;;17.27;8.68;;;;;;;7.53;36.82;101403.03;4471873;32;34114;-78
2022/03/23 00:25:33;;;;;;;13.43;8.02;;;;;;;7.53;36.65;101407.63;4458622;32;33178;-78
2022/03/23 00:28:01;;;;;;;15.57;8.27;;;;;;;7.70;36.35;101400.56;4484598;32;35173;-78
2022/03/23 00:30:28;;;;;;;15.23;9.07;;;;;;;7.71;36.53;101394.06;4458837;32;32383;-78
2022/03/23 00:33:16;;;;;;;16.50;8.75;;;;;;;7.71;36.55;101391.34;4463009;32;33018;-78
2022/03/23 00:35:44;;;;;;;18.00;8.90;;;;;;;7.53;37.10;101389.37;4471650;32;33794;-76
2022/03/23 00:38:11;;;;;;;17.35;8.00;;;;;;;7.61;37.00;101396.84;4471465;32;33232;-76
2022/03/23 00:40:39;;;;;;;18.25;8.23;;;;;;;7.64;36.95;101391.06;4471190;32;34110;-76
2022/03/23 00:43:07;;;;;;;15.20;8.32;;;;;;;7.62;36.81;101390.38;4471276;32;33400;-76
2022/03/23 00:45:35;;;;;;;16.48;9.15;;;;;;;7.49;37.04;101389.81;4485346;32;33763;-76
2022/03/23 00:48:05;;;;;;;13.00;7.80;;;;;;;7.58;36.79;101386.19;4471527;32;34132;-76
2022/03/23 00:50:34;;;;;;;14.82;8.65;;;;;;;7.68;36.69;101388.91;4459670;32;32560;-76
2022/03/23 00:53:02;;;;;;;17.20;8.35;;;;;;;7.30;37.31;101377.06;4456012;32;31891;-76
2022/03/23 00:55:29;;;;;;;15.80;8.80;;;;;;;7.20;37.43;101378.94;4468713;32;33631;-76
2022/03/23 00:57:57;;;;;;;14.15;8.10;;;;;;;7.23;37.49;101381.38;4468162;32;34162;-76
2022/03/23 01:00:24;;;;;;;16.67;8.93;;;;;;;7.05;37.85;101367.62;4455710;32;33777;-76
2022/03/23 01:02:53;;;;;;;15.88;9.07;;;;;;;7.10;37.77;101376.25;4468587;32;33288;-76
2022/03/23 01:05:21;;;;;;;16.52;8.55;;;;;;;7.12;37.67;101376.97;4468455;32;33713;-76
2022/03/23 01:07:48;;;;;;;16.58;9.40;;;;;;;7.31;37.26;101367.84;4455509;32;33920;-76
2022/03/23 01:10:16;;;;;;;13.60;8.45;;;;;;;7.28;36.81;101371.75;4455539;32;34047;-76
2022/03/23 01:12:45;;;;;;;14.27;8.30;;;;;;;7.18;36.84;101376.34;4480534;31;33341;-76
2022/03/23 01:15:15;;;;;;;17.17;8.63;;;;;;;7.25;36.74;101366.56;4487110;31;33932;-76
2022/03/23 01:17:43;;;;;;;18.50;9.20;;;;;;;7.17;36.97;101380.09;4474142;31;34392;-76
2022/03/23 01:20:14;;;;;;;15.45;8.20;;;;;;;6.95;37.18;101372.22;4486567;31;34020;-76
2022/03/23 01:22:44;;;;;;;15.82;8.95;;;;;;;7.02;37.33;101384.31;4473569;31;33040;-76
2022/03/23 01:25:16;;;;;;;15.43;8.00;;;;;;;7.03;37.58;101366.91;4474730;31;33643;-76
2022/03/23 01:27:45;;;;;;;14.98;8.88;;;;;;;6.87;37.85;101370.22;4473580;31;34377;-76
2022/03/23 01:30:15;;;;;;;14.85;8.43;;;;;;;7.07;37.42;101365.63;4473515;31;32330;-76
2022/03/23 01:32:44;;;;;;;15.38;8.55;;;;;;;6.94;37.56;101368.66;4473451;31;31694;-76
2022/03/23 01:35:12;;;;;;;15.70;8.65;;;;;;;6.97;37.23;101362.03;4473216;31;32129;-76
2022/03/23 01:37:39;;;;;;;16.60;8.57;;;;;;;6.90;37.61;101360.88;4473526;31;35068;-76
2022/03/23 01:40:09;;;;;;;17.95;9.45;;;;;;;6.88;37.88;101361.03;4473367;31;34704;-76
2022/03/23 01:42:39;;;;;;;15.35;8.27;;;;;;;6.82;37.82;101358.87;4486449;31;33460;-76
2022/03/23 01:45:08;;;;;;;15.30;8.23;;;;;;;6.76;38.20;101362.19;4486263;31;33792;-76
2022/03/23 01:47:37;;;;;;;16.87;9.13;;;;;;;6.69;38.40;101361.03;4486280;31;34619;-76
2022/03/23 01:50:06;;;;;;;16.85;8.70;;;;;;;6.60;38.27;101357.28;4473542;31;33961;-76
2022/03/23 01:52:34;;;;;;;16.35;9.57;;;;;;;6.71;38.26;101352.69;4486478;31;33944;-76
2022/03/23 01:55:09;;;;;;;15.63;8.60;;;;;;;6.68;38.15;101356.56;4472588;31;33918;-76
2022/03/23 01:57:41;;;;;;;14.90;8.50;;;;;;;6.47;38.37;101358.59;4459575;31;32972;-76
2022/03/23 02:00:11;;;;;;;15.43;8.82;;;;;;;6.54;38.24;101357.00;4473106;31;32629;-76
2022/03/23 02:02:40;;;;;;;17.95;8.50;;;;;;;6.67;37.98;101354.84;4454269;32;32683;-76
2022/03/23 02:05:10;;;;;;;15.23;8.55;;;;;;;6.73;37.92;101347.97;4467529;31;34472;-76
2022/03/23 02:07:40;;;;;;;15.57;7.87;;;;;;;6.65;37.82;101351.41;4460210;31;33129;-76
2022/03/23 02:10:08;;;;;;;14.55;8.48;;;;;;;6.57;38.29;101363.03;4474428;31;34040;-76
2022/03/23 02:12:37;;;;;;;15.38;7.95;;;;;;;6.51;38.06;101349.97;4475233;31;32889;-76
2022/03/23 02:15:14;;;;;;;15.40;8.48;;;;;;;6.53;38.01;101349.81;4475455;31;34596;-76
2022/03/23 02:17:42;;;;;;;;;;;;;;;6.59;38.05;101360.16;4475434;31;32989;-76
2022/03/23 02:20:10;;;;;;;17.83;8.75;;;;;;;6.48;38.10;101357.59;4475356;31;34782;-76
2022/03/23 02:22:38;;;;;;;16.27;8.55;;;;;;;6.57;37.70;101352.13;4475249;31;33201;-76
2022/03/23 02:25:28;;;;;;;14.05;7.18;;;;;;;6.44;38.12;101353.44;4490316;31;34006;-76
2022/03/23 02:27:56;;;;;;;14.50;7.43;;;;;;;6.58;37.27;101351.13;4475231;31;34396;-76
2022/03/23 02:30:24;;;;;;;15.10;8.60;;;;;;;6.74;37.62;101356.00;4475530;31;33661;-76
2022/03/23 02:32:51;;;;;;;16.30;8.18;;;;;;;6.72;37.74;101355.28;4475207;31;34093;-76
2022/03/23 02:35:19;;;;;;;12.63;7.32;;;;;;;6.62;37.88;101354.41;4475261;31;34738;-76
2022/03/23 02:37:47;;;;;;;15.70;8.75;;;;;;;6.67;37.77;101354.84;4475498;31;35077;-76
2022/03/23 02:40:14;;;;;;;14.07;7.75;;;;;;;6.62;37.81;101358.00;4474961;31;32514;-76
2022/03/23 02:42:42;;;;;;;15.20;8.02;;;;;;;6.73;37.71;101350.69;4462188;31;32907;-76
2022/03/23 02:45:10;;;;;;;14.48;8.25;;;;;;;6.65;37.75;101359.59;4475339;31;34593;-76
2022/03/23 02:47:38;;;;;;;16.85;8.15;;;;;;;6.69;37.80;101350.12;4475291;31;35212;-76
2022/03/23 02:50:06;;;;;;;15.90;8.30;;;;;;;6.76;37.51;101350.41;4475051;31;32544;-76
2022/03/23 03:01:52;;;;;;;13.73;7.82;;;;;;;6.64;37.69;101357.88;4487888;31;33157;-76
2022/03/23 03:04:05;;;;;;;16.12;8.23;;;;;;;6.55;38.20;101356.84;4490193;31;33600;-76
2022/03/23 03:06:33;;;;;;;18.58;8.48;;;;;;;6.40;38.13;101347.38;4474895;31;33813;-76
2022/03/23 03:09:00;;;;;;;17.23;8.85;;;;;;;6.33;38.49;101359.88;4475291;31;34497;-76
2022/03/23 03:11:28;;;;;;;15.98;9.10;;;;;;;6.55;37.98;101345.06;4471341;31;107808;-76
2022/03/23 03:13:56;;;;;;;14.40;8.48;;;;;;;6.50;38.28;101350.12;4487740;31;33056;-76
2022/03/23 03:16:23;;;;;;;18.67;8.18;;;;;;;6.44;38.54;101351.56;4474714;31;32271;-76
2022/03/23 03:18:53;;;;;;;16.52;8.75;;;;;;;6.42;38.43;101358.16;4475474;31;34514;-76
2022/03/23 03:21:21;;;;;;;17.27;8.55;;;;;;;6.53;38.27;101355.28;4474515;31;32394;-76
2022/03/23 03:23:48;;;;;;;13.82;8.20;;;;;;;6.33;38.57;101359.00;4474905;31;34301;-76
2022/03/23 03:26:17;;;;;;;17.87;8.27;;;;;;;6.53;38.33;101352.53;4474970;31;34661;-76
2022/03/23 03:28:45;;;;;;;15.82;8.10;;;;;;;6.25;39.03;101357.84;4487640;31;34324;-76
2022/03/23 03:31:14;;;;;;;16.48;8.35;;;;;;;6.48;38.50;101352.13;4474742;31;32488;-76
2022/03/23 03:33:44;;;;;;;13.90;8.18;;;;;;;6.60;38.15;101350.97;4474781;31;31863;-76
2022/03/23 03:36:11;;;;;;;15.95;7.95;;;;;;;6.53;38.43;101352.53;4471937;32;34254;-76
2022/03/23 03:38:40;;;;;;;18.50;8.95;;;;;;;6.32;38.88;101346.38;4481868;32;35592;-76
2022/03/23 03:41:09;;;;;;;17.58;8.73;;;;;;;6.54;38.27;101349.66;4474794;31;34009;-76
2022/03/23 03:43:37;;;;;;;16.08;8.32;;;;;;;6.39;38.54;101342.06;4474700;31;31741;-76
2022/03/23 03:46:10;;;;;;;17.95;8.55;;;;;;;6.37;38.53;101338.63;4487623;31;33690;-76
2022/03/23 03:48:40;;;;;;;22.90;9.10;;;;;;;6.31;38.87;101341.91;4475527;31;34600;-76
2022/03/23 03:51:08;;;;;;;16.45;8.70;;;;;;;6.36;38.75;101339.63;4487618;31;34237;-76
2022/03/23 03:53:38;;;;;;;15.00;8.65;;;;;;;6.43;38.62;101343.53;4474362;31;32268;-76
2022/03/23 03:56:09;;;;;;;15.68;8.10;;;;;;;6.23;38.74;101340.75;4475003;31;33690;-76
2022/03/23 03:58:38;;;;;;;14.52;8.77;;;;;;;6.08;39.21;101344.88;4487296;31;33026;-76
2022/03/23 04:01:05;;;;;;;16.05;8.55;;;;;;;6.15;39.15;101351.50;4487450;31;34187;-75
2022/03/23 04:03:34;;;;;;;16.08;9.20;;;;;;;6.14;39.33;101348.91;4474564;31;33431;-76
2022/03/23 04:06:06;;;;;;;16.92;9.00;;;;;;;6.39;38.65;101348.41;4474717;31;33771;-76
2022/03/23 04:08:35;;;;;;;18.25;8.52;;;;;;;6.34;38.33;101344.38;4474440;31;33039;-76
2022/03/23 04:11:04;;;;;;;15.57;8.05;;;;;;;6.12;39.05;101357.22;4487451;31;34150;-76
2022/03/23 04:13:32;;;;;;;19.00;9.52;;;;;;;6.45;38.37;101347.81;4474194;31;31969;-76
2022/03/23 04:16:02;;;;;;;19.02;8.80;;;;;;;6.21;38.96;101345.50;4474689;31;34290;-76
2022/03/23 04:18:29;;;;;;;15.55;8.35;;;;;;;6.28;38.71;101349.38;4474600;31;34161;-76
2022/03/23 04:20:58;;;;;;;16.40;8.07;;;;;;;6.40;38.63;101355.56;4474715;31;33948;-76
2022/03/23 04:23:33;;;;;;;16.80;8.55;;;;;;;6.36;38.51;101354.12;4480676;32;32555;-76
2022/03/23 04:26:01;;;;;;;18.42;8.68;;;;;;;6.40;38.55;101347.38;4472511;31;33604;-76
2022/03/23 04:28:28;;;;;;;17.23;8.02;;;;;;;6.46;38.35;101348.69;4474436;31;35438;-76
2022/03/23 04:30:57;;;;;;;17.37;8.75;;;;;;;6.41;38.50;101351.84;4474456;31;34684;-76
2022/03/23 04:33:25;;;;;;;20.30;9.35;;;;;;;6.42;38.41;101336.34;4473410;31;31887;-76
2022/03/23 04:35:52;;;;;;;18.90;8.80;;;;;;;6.46;38.46;101346.81;4487053;31;33814;-76
2022/03/23 04:38:21;;;;;;;17.12;9.45;;;;;;;6.35;38.26;101343.38;4474178;31;34007;-76
2022/03/23 04:40:48;;;;;;;16.15;8.50;;;;;;;6.50;38.32;101350.12;4461208;31;32515;-76
2022/03/23 04:43:16;;;;;;;18.65;8.65;;;;;;;6.78;39.28;101340.22;4474192;31;33406;-76
2022/03/23 04:45:44;;;;;;;18.10;8.35;;;;;;;6.75;38.46;101335.91;4487091;31;33739;-76
2022/03/23 04:48:11;;;;;;;19.05;8.90;;;;;;;6.76;37.71;101345.81;4458388;32;34850;-76
2022/03/23 04:50:40;;;;;;;18.85;8.38;;;;;;;6.88;37.48;101343.78;4470704;31;32656;-76
2022/03/23 04:53:08;;;;;;;15.48;8.20;;;;;;;7.04;37.05;101351.41;4473939;31;32666;-76
2022/03/23 04:55:35;;;;;;;17.37;8.23;;;;;;;7.01;36.63;101352.56;4474132;31;33788;-76
2022/03/23 04:58:03;;;;;;;17.48;8.43;;;;;;;7.13;36.36;101354.12;4473697;31;33105;-76
2022/03/23 05:00:31;;;;;;;18.02;9.27;;;;;;;7.21;36.51;101351.50;4486882;31;34085;-76
2022/03/23 05:03:02;;;;;;;16.83;8.25;;;;;;;7.22;36.36;101345.03;4487072;31;33663;-76
2022/03/23 05:05:30;;;;;;;17.12;7.85;;;;;;;7.47;35.85;101359.91;4473552;31;34463;-76
2022/03/23 05:07:58;;;;;;;16.62;8.27;;;;;;;7.41;35.43;101355.03;4459948;31;32967;-76
2022/03/23 05:10:26;;;;;;;15.80;8.75;;;;;;;7.55;35.74;101360.03;4473662;31;32240;-76
2022/03/23 05:12:53;;;;;;;17.20;8.65;;;;;;;7.59;35.56;101361.47;4486640;31;33882;-76
2022/03/23 05:15:21;;;;;;;16.02;8.73;;;;;;;7.59;36.22;101364.19;4486043;31;34564;-76
2022/03/23 05:17:51;;;;;;;16.05;8.85;;;;;;;7.63;36.27;101361.16;4473354;31;35021;-76
2022/03/23 05:20:19;;;;;;;20.35;8.80;;;;;;;7.66;35.97;101366.34;4473950;31;34055;-76
2022/03/23 05:22:47;;;;;;;18.50;8.70;;;;;;;7.72;36.21;101376.66;4473907;31;33234;-76
2022/03/23 05:25:15;;;;;;;21.92;9.68;;;;;;;7.89;36.10;101373.97;4460780;31;33717;-76
2022/03/23 05:27:43;;;;;;;15.23;8.63;;;;;;;7.91;35.60;101377.44;4473646;31;34341;-76
2022/03/23 05:30:11;;;;;;;16.83;8.85;;;;;;;8.10;35.40;101372.87;4485949;31;34025;-76
2022/03/23 05:32:39;;;;;;;16.27;8.80;;;;;;;8.12;35.54;101374.47;4486465;31;33595;-76
2022/03/23 05:35:08;;;;;;;19.83;9.35;;;;;;;8.40;35.26;101382.69;4460561;31;32094;-76
2022/03/23 05:37:36;;;;;;;16.45;8.10;;;;;;;8.48;34.83;101374.53;4473367;31;33011;-76
2022/03/23 05:40:11;;;;;;;17.08;8.50;;;;;;;8.62;34.13;101371.28;4473695;31;32438;-76
2022/03/23 05:42:40;;;;;;;13.48;7.78;;;;;;;9.01;33.69;101371.84;4473615;31;33662;-76
2022/03/23 05:45:08;;;;;;;17.12;8.80;;;;;;;9.04;33.43;101371.53;4474324;31;32063;-76
2022/03/23 05:47:37;;;;;;;17.15;8.85;;;;;;;9.03;33.90;101367.06;4475441;31;34423;-79
2022/03/23 05:50:05;;;;;;;18.65;8.65;;;;;;;9.19;35.26;101372.66;4488482;31;34231;-76
2022/03/23 05:52:34;;;;;;;19.40;9.65;;;;;;;9.51;33.72;101372.03;4475388;31;33554;-75
2022/03/23 05:55:07;;;;;;;18.73;9.85;;;;;;;9.79;31.50;101361.75;4460122;32;33243;-75
2022/03/23 05:57:35;;;;;;;22.40;10.50;;;;;;;10.01;30.29;101359.44;4473302;32;34523;-76
2022/03/23 06:00:07;;;;;;;21.87;9.98;;;;;;;10.41;30.14;101356.88;4459132;32;33965;-75
2022/03/23 06:02:38;;;;;;;18.75;9.38;;;;;;;10.59;29.14;101358.63;4459151;32;31792;-75
2022/03/23 06:05:10;;;;;;;18.48;9.50;;;;;;;10.99;29.10;101366.94;4472180;32;33336;-77
2022/03/23 06:07:40;;;;;;;17.52;9.43;;;;;;;11.16;28.28;101367.78;4459471;32;32846;-77
2022/03/23 06:10:08;;;;;;;17.98;8.43;;;;;;;11.73;27.83;101371.31;4472469;32;33593;-76
2022/03/23 06:12:36;;;;;;;16.45;8.95;;;;;;;11.81;27.53;101365.81;4456816;32;33840;-77
2022/03/23 06:15:08;;;;;;;21.80;9.98;;;;;;;11.92;27.24;101371.97;4446687;32;33333;-77
2022/03/23 06:17:37;;;;;;;20.37;10.07;;;;;;;12.31;26.95;101361.00;4465866;32;33904;-77
2022/03/23 06:20:05;;;;;;;16.62;9.50;;;;;;;12.18;26.41;101365.19;4455652;32;32718;-76
2022/03/23 06:22:32;;;;;;;21.35;10.60;;;;;;;12.66;26.02;101360.44;4456386;32;33871;-77
2022/03/23 06:25:00;;;;;;;19.95;11.02;;;;;;;13.07;25.73;101355.47;4444004;32;33123;-77
2022/03/23 06:27:28;;;;;;;32.03;15.90;;;;;;;12.93;25.30;101363.72;4469316;32;34459;-77
2022/03/23 06:29:56;;;;;;;26.95;14.82;;;;;;;13.26;26.77;101356.91;4469620;32;34729;-77
2022/03/23 06:32:23;;;;;;;83.50;47.13;;;;;;;13.33;25.16;101360.62;4457323;32;32796;-76
2022/03/23 06:34:57;;;;;;;33.85;17.95;;;;;;;13.30;25.13;101360.16;4457419;32;34865;-77
2022/03/23 06:37:24;;;;;;;28.50;15.98;;;;;;;13.65;25.06;101348.41;4457146;32;34339;-77
2022/03/23 06:39:52;;;;;;;23.30;13.73;;;;;;;14.05;24.17;101355.37;4456931;32;34839;-76
2022/03/23 06:42:20;;;;;;;22.67;12.25;;;;;;;14.30;23.72;101349.56;4456881;32;32062;-77
2022/03/23 06:44:50;;;;;;;18.45;10.95;;;;;;;14.65;23.42;101354.25;4469623;32;33655;-77
2022/03/23 06:47:18;;;;;;;20.02;10.57;;;;;;;15.01;22.87;101356.09;4469624;32;34489;-77
2022/03/23 06:49:46;;;;;;;23.95;10.50;;;;;;;14.80;22.85;101365.25;4456732;32;32472;-77
2022/03/23 06:52:15;;;;;;;22.20;10.93;;;;;;;14.80;22.95;101360.59;4469680;32;34073;-77
2022/03/23 06:54:42;;;;;;;25.02;10.63;;;;;;;15.19;22.75;101363.94;4456578;32;33907;-77
2022/03/23 06:57:10;;;;;;;20.33;10.50;;;;;;;15.57;22.48;101361.75;4443893;32;33979;-77
2022/03/23 06:59:38;;;;;;;19.48;10.65;;;;;;;15.14;22.42;101359.00;4456866;32;33836;-77
2022/03/23 07:02:06;;;;;;;20.12;10.02;;;;;;;15.77;22.49;101359.97;4456731;32;34045;-77
2022/03/23 07:04:34;;;;;;;19.92;10.85;;;;;;;16.02;21.97;101363.97;4456527;32;33452;-77
2022/03/23 07:07:02;;;;;;;19.50;10.70;;;;;;;16.27;22.20;101355.13;4456664;32;34282;-77
2022/03/23 07:09:34;;;;;;;21.23;11.45;;;;;;;16.19;21.67;101355.34;4469408;32;34362;-77
2022/03/23 07:12:12;;;;;;;20.05;10.32;;;;;;;16.58;21.27;101361.03;4456940;32;33470;-77
2022/03/23 07:14:41;;;;;;;16.73;10.63;;;;;;;16.71;21.28;101358.34;4456562;32;32426;-77
2022/03/23 07:17:12;;;;;;;16.48;9.60;;;;;;;16.67;21.14;101358.97;4444611;32;33934;-77
2022/03/23 07:19:42;;;;;;;16.67;10.70;;;;;;;16.79;20.96;101366.47;4456858;32;34237;-77
2022/03/23 07:22:15;;;;;;;37.38;19.95;;;;;;;17.15;21.16;101367.16;4456750;32;32782;-77
2022/03/23 07:24:47;;;;;;;30.37;18.27;;;;;;;17.43;20.60;101365.91;4456703;32;32015;-77
2022/03/23 07:27:15;;;;;;;25.23;13.70;;;;;;;17.43;20.27;101357.59;4456876;32;33725;-77
2022/03/23 07:29:48;;;;;;;19.33;11.32;;;;;;;17.66;20.14;101364.66;4456920;32;34076;-77
2022/03/23 07:32:16;;;;;;;18.23;10.30;;;;;;;17.59;20.30;101355.44;4443659;32;31968;-77
2022/03/23 07:34:46;;;;;;;19.05;11.07;;;;;;;17.83;19.55;101362.28;4456423;32;33710;-77
2022/03/23 07:37:18;;;;;;;20.67;10.55;;;;;;;18.04;19.52;101356.47;4456607;32;34429;-77
2022/03/23 07:39:46;;;;;;;17.45;10.60;;;;;;;18.10;19.58;101350.91;4456507;32;33991;-77
2022/03/23 07:42:14;;;;;;;19.00;11.55;;;;;;;18.34;19.12;101346.53;4456582;32;34043;-77
2022/03/23 07:44:42;;;;;;;22.50;13.07;;;;;;;18.17;19.36;101356.44;4456546;32;32067;-77
2022/03/23 07:47:15;;;;;;;20.40;11.02;;;;;;;18.37;19.33;101351.66;4469397;32;34415;-77
2022/03/23 07:49:45;;;;;;;17.95;11.15;;;;;;;18.69;19.21;101354.53;4469414;32;33975;-77
2022/03/23 07:52:13;;;;;;;20.25;12.20;;;;;;;18.77;19.00;101347.88;4469640;32;33269;-77
2022/03/23 07:54:40;;;;;;;19.45;11.55;;;;;;;18.86;19.00;101354.84;4456344;32;32220;-78
2022/03/23 07:57:10;;;;;;;20.00;10.80;;;;;;;18.96;18.76;101347.72;4456818;32;34517;-77
2022/03/23 07:59:41;;;;;;;17.40;10.40;;;;;;;18.64;18.91;101354.34;4456226;32;33333;-77
2022/03/23 08:02:11;;;;;;;22.65;11.52;;;;;;;18.52;18.97;101354.16;4456623;32;33381;-77
2022/03/23 08:04:40;;;;;;;17.95;11.07;;;;;;;18.53;19.06;101355.87;4444009;32;31936;-77
2022/03/23 08:07:08;;;;;;;21.37;11.63;;;;;;;18.93;18.88;101344.53;4455312;32;32972;-77
2022/03/23 08:09:41;;;;;;;21.70;11.82;;;;;;;19.05;19.06;101346.38;4456570;32;34504;-77
2022/03/23 08:12:09;;;;;;;21.40;11.70;;;;;;;19.30;18.59;101354.78;4456301;32;33199;-77
2022/03/23 08:14:37;;;;;;;21.10;11.05;;;;;;;19.44;18.38;101344.38;4456353;32;32209;-77
2022/03/23 08:17:04;;;;;;;27.98;12.95;;;;;;;19.64;18.45;101339.50;4456314;32;34085;-76
2022/03/23 08:19:35;;;;;;;22.30;12.77;;;;;;;19.55;18.08;101340.88;4456284;32;32475;-77
2022/03/23 08:22:03;;;;;;;29.67;18.52;;;;;;;19.47;18.42;101352.28;4456317;32;34139;-77
2022/03/23 08:24:31;;;;;;;18.10;11.90;;;;;;;19.65;18.76;101343.16;4443356;32;33409;-77
2022/03/23 08:26:59;;;;;;;18.08;11.30;;;;;;;19.42;18.24;101343.75;4456163;32;34460;-77
2022/03/23 08:29:29;;;;;;;20.77;11.15;;;;;;;19.86;18.18;101333.50;4443570;32;33562;-77
2022/03/23 08:31:57;;;;;;;18.35;10.52;;;;;;;19.91;17.94;101342.88;4456119;32;33396;-77
2022/03/23 08:34:26;;;;;;;20.05;10.85;;;;;;;20.30;17.54;101332.34;4456021;32;34485;-77
2022/03/23 08:36:56;;;;;;;18.17;10.82;;;;;;;20.23;17.40;101329.66;4456114;32;32793;-78
2022/03/23 08:39:23;;;;;;;20.85;11.18;;;;;;;20.42;17.33;101341.69;4456028;32;34895;-77
2022/03/23 08:41:51;;;;;;;20.90;10.65;;;;;;;20.36;17.23;101337.84;4456057;32;33386;-78
2022/03/23 08:44:20;;;;;;;19.92;9.63;;;;;;;20.70;17.14;101336.38;4456048;32;34553;-78
2022/03/23 08:46:47;;;;;;;17.55;10.40;;;;;;;20.99;16.30;101333.78;4468769;32;34486;-78
2022/03/23 08:49:15;;;;;;;19.77;10.40;;;;;;;21.33;16.94;101335.88;4456103;32;33759;-75
2022/03/23 08:51:43;;;;;;;15.70;10.32;;;;;;;21.29;16.39;101340.22;4455574;32;31925;-79
2022/03/23 08:54:10;;;;;;;16.77;10.10;;;;;;;21.14;16.12;101334.22;4468352;32;34417;-76
2022/03/23 08:56:38;;;;;;;15.88;9.10;;;;;;;21.26;16.87;101326.75;4455502;32;35312;-76
2022/03/23 08:59:05;;;;;;;16.67;10.23;;;;;;;21.69;16.06;101328.34;4442862;32;32509;-77
2022/03/23 09:01:33;;;;;;;16.60;9.95;;;;;;;21.87;15.88;101328.25;4455422;32;33673;-77
2022/03/23 09:04:04;;;;;;;17.75;11.77;;;;;;;22.13;16.71;101332.47;4455642;32;34896;-77
2022/03/23 09:06:31;;;;;;;20.30;11.52;;;;;;;22.35;15.74;101324.28;4468563;32;34227;-77
2022/03/23 09:08:59;;;;;;;20.08;10.85;;;;;;;22.57;15.83;101324.47;4455425;32;32811;-77
2022/03/23 09:11:27;;;;;;;27.65;11.75;;;;;;;22.95;15.77;101319.09;4468394;32;33452;-76
2022/03/23 09:13:54;;;;;;;17.73;9.80;;;;;;;22.98;15.79;101314.94;4468054;32;33920;-76
2022/03/23 09:16:22;;;;;;;17.05;10.55;;;;;;;23.25;14.80;101313.22;4468042;32;35249;-80
2022/03/23 09:18:50;;;;;;;21.30;10.32;;;;;;;23.13;14.97;101312.44;4468954;32;34306;-81
2022/03/23 09:21:18;;;;;;;19.50;10.00;;;;;;;23.22;14.96;101310.06;4457043;32;31741;-81
2022/03/23 09:23:48;;;;;;;18.90;10.38;;;;;;;23.65;14.87;101315.00;4457052;32;33277;-80
2022/03/23 09:26:16;;;;;;;16.98;9.60;;;;;;;23.95;14.64;101304.25;4456984;32;34766;-79
2022/03/23 09:28:45;;;;;;;16.98;9.95;;;;;;;23.69;14.24;101304.13;4456984;32;33832;-77
2022/03/23 09:31:13;;;;;;;16.20;9.18;;;;;;;24.09;14.29;101303.88;4469927;32;33552;-78
2022/03/23 09:33:42;;;;;;;19.25;9.02;;;;;;;24.13;14.04;101305.91;4457009;32;31857;-78
2022/03/23 09:38:57;;;;;;;15.27;9.13;;;;;;;24.42;14.79;101300.12;4459253;32;32647;-79
2022/03/23 09:41:27;;;;;;;15.27;9.18;;;;;;;24.27;13.74;101301.63;4444364;32;31434;-80
2022/03/23 09:43:57;;;;;;;19.92;9.73;;;;;;;24.15;13.48;101300.88;4471128;32;33879;-80
2022/03/23 09:46:32;;;;;;;13.35;8.32;;;;;;;24.61;14.70;101298.69;4469818;32;34903;-80
2022/03/23 09:49:03;;;;;;;13.88;9.18;;;;;;;25.16;14.48;101304.06;4457224;32;33868;-80
2022/03/23 09:51:35;;;;;;;14.23;8.45;;;;;;;25.08;15.20;101295.28;4461344;32;32476;-80
2022/03/23 09:54:05;;;;;;;15.90;8.43;;;;;;;24.75;12.62;101296.28;4469132;32;33061;-80
2022/03/23 09:56:33;;;;;;;15.45;9.05;;;;;;;24.72;13.16;101296.81;4464602;32;33077;-80
2022/03/23 09:59:04;;;;;;;14.35;8.30;;;;;;;24.99;13.85;101280.84;4464497;32;33366;-80
2022/03/23 10:01:32;;;;;;;15.93;8.15;;;;;;;25.02;12.96;101287.91;4478185;32;33591;-80
2022/03/23 10:04:13;;;;;;;17.12;7.75;;;;;;;24.60;12.79;101282.94;4477496;32;34457;-80
2022/03/23 10:06:59;;;;;;;19.08;8.80;;;;;;;24.56;12.72;101282.62;4463667;32;32867;-80
2022/03/23 10:09:26;;;;;;;15.18;8.88;;;;;;;24.54;12.85;101284.00;4462113;32;33477;-79
2022/03/23 10:12:32;;;;;;;14.43;8.68;;;;;;;24.92;13.44;101280.19;4464069;31;31912;-80
2022/03/23 10:15:37;;;;;;;15.48;8.00;;;;;;;24.71;12.45;101273.50;4488351;31;34900;-80
2022/03/23 10:18:46;;;;;;;14.57;8.50;;;;;;;24.47;12.82;101277.75;4475146;31;32787;-80
2022/03/23 10:21:27;;;;;;;16.25;8.13;;;;;;;24.79;12.72;101277.81;4471380;32;33866;-80
2022/03/23 10:23:58;;;;;;;12.63;7.62;;;;;;;24.97;12.50;101276.63;4465043;32;34111;-80
2022/03/23 10:26:27;;;;;;;17.00;7.03;;;;;;;25.71;12.12;101265.44;4483178;32;33735;-80
2022/03/23 10:28:55;;;;;;;13.38;8.25;;;;;;;25.40;12.25;101264.34;4478810;31;34948;-80
2022/03/23 10:31:25;;;;;;;15.60;7.70;;;;;;;25.01;12.03;101261.78;4453149;32;32413;-80
2022/03/23 10:34:00;;;;;;;13.48;8.18;;;;;;;24.42;12.28;101260.84;4467101;32;32860;-80
2022/03/23 10:36:30;;;;;;;13.05;7.95;;;;;;;24.59;12.41;101259.66;4450875;32;32047;-80
2022/03/23 10:39:06;;;;;;;15.35;8.05;;;;;;;24.67;12.15;101249.06;4469506;32;34603;-80
2022/03/23 10:41:36;;;;;;;14.73;7.55;;;;;;;24.48;12.44;101248.56;4456643;32;32811;-80
2022/03/23 10:44:17;;;;;;;12.05;7.32;;;;;;;24.19;12.50;101248.75;4470206;32;33093;-80
2022/03/23 10:46:49;;;;;;;12.68;7.50;;;;;;;24.90;11.61;101243.94;4471593;32;33944;-81
2022/03/23 10:49:33;;;;;;;10.82;7.12;;;;;;;25.41;12.61;101233.16;4472285;32;33928;-80
2022/03/23 10:52:13;;;;;;;17.87;8.63;;;;;;;25.55;13.21;101233.53;4472464;32;34410;-80
2022/03/23 10:54:58;;;;;;;12.75;8.18;;;;;;;25.39;11.62;101228.91;4484917;32;33387;-79
2022/03/23 10:58:01;;;;;;;16.80;8.63;;;;;;;24.29;12.23;101234.03;4472033;32;34018;-84
2022/03/23 11:00:38;;;;;;;15.23;7.62;;;;;;;24.08;13.22;101218.00;4472292;32;32989;-84
2022/03/23 11:03:08;;;;;;;12.70;7.95;;;;;;;24.79;11.65;101218.81;4457809;32;32577;-83
2022/03/23 11:05:40;;;;;;;14.82;8.07;;;;;;;24.98;11.34;101225.78;4471473;32;33070;-82
2022/03/23 11:08:11;;;;;;;10.07;7.10;;;;;;;24.78;11.64;101217.97;4473033;32;32471;-83
2022/03/23 11:16:28;;;;;;;15.95;7.87;;;;;;;25.09;11.71;101205.09;4487523;32;34409;-84
2022/03/23 11:19:11;;;;;;;12.13;7.60;;;;;;;25.16;11.64;101205.72;4471749;32;32200;-84
2022/03/23 11:21:58;;;;;;;13.10;6.87;;;;;;;25.17;11.35;101195.31;4485007;32;34457;-84
2022/03/23 11:24:27;;;;;;;14.18;7.68;;;;;;;25.31;11.54;101198.53;4472057;32;33409;-80
2022/03/23 11:26:55;;;;;;;15.73;7.78;;;;;;;25.61;12.03;101190.25;4470854;32;32797;-86
2022/03/23 11:29:25;;;;;;;11.68;7.22;;;;;;;25.72;11.30;101192.06;4472056;32;33485;-85
2022/03/23 11:31:54;;;;;;;12.02;7.25;;;;;;;25.90;11.03;101176.69;4484068;32;33966;-85
2022/03/23 11:34:23;;;;;;;13.90;7.35;;;;;;;26.00;11.33;101173.88;4473614;32;34584;-85
2022/03/23 11:36:54;;;;;;;37.08;22.85;;;;;;;25.43;11.28;101171.03;4460325;32;31856;-85
2022/03/23 11:39:24;;;;;;;18.20;9.95;;;;;;;25.82;11.45;101177.19;4472157;32;33445;-85
2022/03/23 11:41:58;;;;;;;12.88;7.15;;;;;;;26.05;11.28;101170.22;4483711;32;33953;-85
2022/03/23 11:44:29;;;;;;;15.90;6.87;;;;;;;25.67;11.00;101166.72;4471630;32;32181;-85
2022/03/23 11:47:02;;;;;;;14.10;7.22;;;;;;;25.40;11.00;101165.94;4459056;32;31746;-85
2022/03/23 11:49:42;;;;;;;11.88;7.75;;;;;;;25.86;11.19;101165.13;4459211;32;31954;-85
2022/03/23 11:52:31;;;;;;;12.27;6.28;;;;;;;25.97;12.24;101156.72;4484898;32;33838;-86